sensor_id;sensor_type;location;lat;lon;timestamp;P1;durP1;ratioP1;P2;durP2;ratioP2
1577;SDS011;57623;53.608;10.004;2023-04-03T00:05:30;4.57;;;2.97;;
1577;SDS011;57623;53.608;10.004;2023-04-03T00:07:58;4.90;;;2.90;;
1577;SDS011;57623;53.608;10.004;2023-04-03T00:10:28;3.57;;;2.60;;
1577;SDS011;57623;53.608;10.004;2023-04-03T00:12:56;4.53;;;3.07;;
1577;SDS011;57623;53.608;10.004;2023-04-03T00:15:25;5.10;;;2.63;;
1577;SDS011;57623;53.608;10.004;2023-04-03T00:17:53;2.60;;;2.40;;
1577;SDS011;57623;53.608;10.004;2023-04-03T00:20:21;4.50;;;2.83;;
1577;SDS011;57623;53.608;10.004;2023-04-03T00:22:49;2.70;;;2.30;;
1577;SDS011;57623;53.608;10.004;2023-04-03T00:25:17;4.30;;;2.83;;
1577;SDS011;57623;53.608;10.004;2023-04-03T00:27:45;3.90;;;2.70;;
1577;SDS011;57623;53.608;10.004;2023-04-03T00:30:13;7.23;;;3.03;;
1577;SDS011;57623;53.608;10.004;2023-04-03T00:32:44;4.17;;;2.80;;
1577;SDS011;57623;53.608;10.004;2023-04-03T00:35:12;3.33;;;2.70;;
1577;SDS011;57623;53.608;10.004;2023-04-03T00:37:42;6.70;;;2.87;;
1577;SDS011;57623;53.608;10.004;2023-04-03T00:40:10;7.40;;;2.70;;
1577;SDS011;57623;53.608;10.004;2023-04-03T00:42:40;7.10;;;2.60;;
1577;SDS011;57623;53.608;10.004;2023-04-03T00:48:00;3.50;;;3.20;;
1577;SDS011;57623;53.608;10.004;2023-04-03T00:50:31;4.07;;;2.93;;
1577;SDS011;57623;53.608;10.004;2023-04-03T00:53:03;4.30;;;2.77;;
1577;SDS011;57623;53.608;10.004;2023-04-03T00:55:32;3.90;;;3.07;;
1577;SDS011;57623;53.608;10.004;2023-04-03T00:58:01;7.07;;;3.00;;
1577;SDS011;57623;53.608;10.004;2023-04-03T01:00:29;3.10;;;2.80;;
1577;SDS011;57623;53.608;10.004;2023-04-03T01:02:58;3.90;;;2.77;;
1577;SDS011;57623;53.608;10.004;2023-04-03T01:05:28;4.37;;;2.63;;
1577;SDS011;57623;53.608;10.004;2023-04-03T01:07:56;4.20;;;3.10;;
1577;SDS011;57623;53.608;10.004;2023-04-03T01:10:25;2.67;;;2.47;;
1577;SDS011;57623;53.608;10.004;2023-04-03T01:12:53;3.33;;;2.47;;
1577;SDS011;57623;53.608;10.004;2023-04-03T01:15:22;3.73;;;2.40;;
1577;SDS011;57623;53.608;10.004;2023-04-03T01:18:01;2.97;;;2.40;;
1577;SDS011;57623;53.608;10.004;2023-04-03T01:20:36;4.13;;;2.27;;
1577;SDS011;57623;53.608;10.004;2023-04-03T01:23:37;6.10;;;2.67;;
1577;SDS011;57623;53.608;10.004;2023-04-03T01:26:14;3.70;;;2.63;;
1577;SDS011;57623;53.608;10.004;2023-04-03T01:28:42;2.70;;;2.47;;
1577;SDS011;57623;53.608;10.004;2023-04-03T01:31:12;5.90;;;2.80;;
1577;SDS011;57623;53.608;10.004;2023-04-03T01:33:47;3.30;;;2.63;;
1577;SDS011;57623;53.608;10.004;2023-04-03T01:36:16;4.10;;;3.20;;
1577;SDS011;57623;53.608;10.004;2023-04-03T01:38:47;3.33;;;2.43;;
1577;SDS011;57623;53.608;10.004;2023-04-03T01:41:15;3.67;;;3.10;;
1577;SDS011;57623;53.608;10.004;2023-04-03T01:43:43;3.87;;;2.90;;
1577;SDS011;57623;53.608;10.004;2023-04-03T01:46:11;3.73;;;2.77;;
1577;SDS011;57623;53.608;10.004;2023-04-03T01:48:39;4.50;;;2.80;;
1577;SDS011;57623;53.608;10.004;2023-04-03T01:51:10;3.03;;;2.50;;
1577;SDS011;57623;53.608;10.004;2023-04-03T01:53:38;4.27;;;2.80;;
1577;SDS011;57623;53.608;10.004;2023-04-03T01:56:06;5.03;;;2.90;;
1577;SDS011;57623;53.608;10.004;2023-04-03T01:58:34;4.90;;;2.80;;
1577;SDS011;57623;53.608;10.004;2023-04-03T02:01:02;6.20;;;2.70;;
1577;SDS011;57623;53.608;10.004;2023-04-03T02:03:31;4.33;;;2.93;;
1577;SDS011;57623;53.608;10.004;2023-04-03T02:05:59;4.80;;;2.97;;
1577;SDS011;57623;53.608;10.004;2023-04-03T02:08:28;4.27;;;2.83;;
1577;SDS011;57623;53.608;10.004;2023-04-03T02:10:56;3.00;;;2.70;;
1577;SDS011;57623;53.608;10.004;2023-04-03T02:13:24;6.00;;;2.97;;
1577;SDS011;57623;53.608;10.004;2023-04-03T02:15:52;5.03;;;2.90;;
1577;SDS011;57623;53.608;10.004;2023-04-03T02:18:20;4.53;;;2.97;;
1577;SDS011;57623;53.608;10.004;2023-04-03T02:20:48;4.60;;;2.87;;
1577;SDS011;57623;53.608;10.004;2023-04-03T02:23:17;3.60;;;2.40;;
1577;SDS011;57623;53.608;10.004;2023-04-03T02:25:46;4.17;;;2.70;;
1577;SDS011;57623;53.608;10.004;2023-04-03T02:28:15;4.03;;;2.80;;
1577;SDS011;57623;53.608;10.004;2023-04-03T02:30:43;4.30;;;2.70;;
1577;SDS011;57623;53.608;10.004;2023-04-03T02:33:11;4.87;;;2.77;;
1577;SDS011;57623;53.608;10.004;2023-04-03T02:35:39;3.90;;;2.73;;
1577;SDS011;57623;53.608;10.004;2023-04-03T02:38:07;2.63;;;2.40;;
1577;SDS011;57623;53.608;10.004;2023-04-03T02:40:35;4.60;;;2.70;;
1577;SDS011;57623;53.608;10.004;2023-04-03T02:43:05;3.57;;;2.37;;
1577;SDS011;57623;53.608;10.004;2023-04-03T02:45:33;3.53;;;2.70;;
1577;SDS011;57623;53.608;10.004;2023-04-03T02:48:01;5.17;;;2.67;;
1577;SDS011;57623;53.608;10.004;2023-04-03T02:50:29;3.70;;;2.50;;
1577;SDS011;57623;53.608;10.004;2023-04-03T02:52:57;4.43;;;2.57;;
1577;SDS011;57623;53.608;10.004;2023-04-03T02:55:25;2.80;;;2.50;;
1577;SDS011;57623;53.608;10.004;2023-04-03T02:57:53;3.97;;;2.47;;
1577;SDS011;57623;53.608;10.004;2023-04-03T03:00:23;3.87;;;2.60;;
1577;SDS011;57623;53.608;10.004;2023-04-03T03:02:51;4.90;;;2.60;;
1577;SDS011;57623;53.608;10.004;2023-04-03T03:05:19;5.13;;;2.50;;
1577;SDS011;57623;53.608;10.004;2023-04-03T03:07:47;4.10;;;3.00;;
1577;SDS011;57623;53.608;10.004;2023-04-03T03:10:16;2.93;;;2.63;;
1577;SDS011;57623;53.608;10.004;2023-04-03T03:12:43;5.87;;;2.70;;
1577;SDS011;57623;53.608;10.004;2023-04-03T03:15:11;4.87;;;3.00;;
1577;SDS011;57623;53.608;10.004;2023-04-03T03:17:41;5.83;;;2.40;;
1577;SDS011;57623;53.608;10.004;2023-04-03T03:20:09;3.40;;;2.50;;
1577;SDS011;57623;53.608;10.004;2023-04-03T03:22:40;3.07;;;2.60;;
1577;SDS011;57623;53.608;10.004;2023-04-03T03:25:08;3.70;;;2.80;;
1577;SDS011;57623;53.608;10.004;2023-04-03T03:27:36;5.00;;;3.07;;
1577;SDS011;57623;53.608;10.004;2023-04-03T03:30:05;3.90;;;3.10;;
1577;SDS011;57623;53.608;10.004;2023-04-03T03:32:34;4.10;;;2.60;;
1577;SDS011;57623;53.608;10.004;2023-04-03T03:35:03;3.33;;;2.90;;
1577;SDS011;57623;53.608;10.004;2023-04-03T03:37:32;6.43;;;3.10;;
1577;SDS011;57623;53.608;10.004;2023-04-03T03:40:00;4.10;;;3.07;;
1577;SDS011;57623;53.608;10.004;2023-04-03T03:42:28;4.47;;;3.40;;
1577;SDS011;57623;53.608;10.004;2023-04-03T03:44:56;4.10;;;3.17;;
1577;SDS011;57623;53.608;10.004;2023-04-03T03:47:24;3.37;;;2.80;;
1577;SDS011;57623;53.608;10.004;2023-04-03T03:49:52;7.70;;;2.90;;
1577;SDS011;57623;53.608;10.004;2023-04-03T03:52:21;10.00;;;3.23;;
1577;SDS011;57623;53.608;10.004;2023-04-03T03:54:50;7.30;;;3.20;;
1577;SDS011;57623;53.608;10.004;2023-04-03T03:57:17;3.60;;;2.80;;
1577;SDS011;57623;53.608;10.004;2023-04-03T03:59:46;3.73;;;3.03;;
1577;SDS011;57623;53.608;10.004;2023-04-03T04:02:15;4.90;;;3.40;;
1577;SDS011;57623;53.608;10.004;2023-04-03T04:04:43;4.80;;;3.27;;
1577;SDS011;57623;53.608;10.004;2023-04-03T04:07:11;4.30;;;3.07;;
1577;SDS011;57623;53.608;10.004;2023-04-03T04:09:40;4.50;;;2.80;;
1577;SDS011;57623;53.608;10.004;2023-04-03T04:12:08;4.70;;;3.40;;
1577;SDS011;57623;53.608;10.004;2023-04-03T04:14:36;4.53;;;3.10;;
1577;SDS011;57623;53.608;10.004;2023-04-03T04:17:04;4.97;;;2.83;;
1577;SDS011;57623;53.608;10.004;2023-04-03T04:19:32;4.20;;;3.40;;
1577;SDS011;57623;53.608;10.004;2023-04-03T04:22:00;4.00;;;3.17;;
1577;SDS011;57623;53.608;10.004;2023-04-03T04:24:28;9.03;;;3.70;;
1577;SDS011;57623;53.608;10.004;2023-04-03T04:26:57;6.03;;;3.73;;
1577;SDS011;57623;53.608;10.004;2023-04-03T04:29:25;4.97;;;3.47;;
1577;SDS011;57623;53.608;10.004;2023-04-03T04:31:53;5.77;;;3.23;;
1577;SDS011;57623;53.608;10.004;2023-04-03T04:34:21;5.13;;;3.57;;
1577;SDS011;57623;53.608;10.004;2023-04-03T04:36:49;5.00;;;3.33;;
1577;SDS011;57623;53.608;10.004;2023-04-03T04:39:17;3.77;;;3.07;;
1577;SDS011;57623;53.608;10.004;2023-04-03T04:41:45;5.17;;;3.50;;
1577;SDS011;57623;53.608;10.004;2023-04-03T04:44:15;5.27;;;2.97;;
1577;SDS011;57623;53.608;10.004;2023-04-03T04:46:42;5.10;;;3.50;;
1577;SDS011;57623;53.608;10.004;2023-04-03T04:49:11;4.27;;;3.43;;
1577;SDS011;57623;53.608;10.004;2023-04-03T04:51:39;5.50;;;3.17;;
1577;SDS011;57623;53.608;10.004;2023-04-03T04:54:17;4.83;;;3.50;;
1577;SDS011;57623;53.608;10.004;2023-04-03T04:56:45;4.83;;;3.03;;
1577;SDS011;57623;53.608;10.004;2023-04-03T04:59:14;6.00;;;3.53;;
1577;SDS011;57623;53.608;10.004;2023-04-03T05:04:43;7.50;;;3.87;;
1577;SDS011;57623;53.608;10.004;2023-04-03T05:07:11;5.87;;;3.57;;
1577;SDS011;57623;53.608;10.004;2023-04-03T05:09:38;3.90;;;3.30;;
1577;SDS011;57623;53.608;10.004;2023-04-03T05:12:08;5.30;;;3.63;;
1577;SDS011;57623;53.608;10.004;2023-04-03T05:14:37;6.30;;;4.00;;
1577;SDS011;57623;53.608;10.004;2023-04-03T05:17:05;5.17;;;3.87;;
1577;SDS011;57623;53.608;10.004;2023-04-03T05:19:33;5.70;;;3.87;;
1577;SDS011;57623;53.608;10.004;2023-04-03T05:22:01;5.77;;;3.70;;
1577;SDS011;57623;53.608;10.004;2023-04-03T05:24:29;4.13;;;3.67;;
1577;SDS011;57623;53.608;10.004;2023-04-03T05:26:57;6.30;;;4.40;;
1577;SDS011;57623;53.608;10.004;2023-04-03T05:29:25;6.47;;;3.97;;
1577;SDS011;57623;53.608;10.004;2023-04-03T05:31:54;5.73;;;3.80;;
1577;SDS011;57623;53.608;10.004;2023-04-03T05:34:22;4.77;;;3.70;;
1577;SDS011;57623;53.608;10.004;2023-04-03T05:36:50;5.37;;;4.37;;
1577;SDS011;57623;53.608;10.004;2023-04-03T05:39:18;5.23;;;4.10;;
1577;SDS011;57623;53.608;10.004;2023-04-03T05:41:47;8.93;;;4.70;;
1577;SDS011;57623;53.608;10.004;2023-04-03T05:44:15;6.17;;;4.10;;
1577;SDS011;57623;53.608;10.004;2023-04-03T05:46:43;5.40;;;4.47;;
1577;SDS011;57623;53.608;10.004;2023-04-03T05:49:12;8.50;;;4.90;;
1577;SDS011;57623;53.608;10.004;2023-04-03T05:51:40;6.30;;;4.60;;
1577;SDS011;57623;53.608;10.004;2023-04-03T05:54:09;4.83;;;3.63;;
1577;SDS011;57623;53.608;10.004;2023-04-03T05:56:40;6.37;;;4.50;;
1577;SDS011;57623;53.608;10.004;2023-04-03T05:59:08;5.40;;;3.80;;
1577;SDS011;57623;53.608;10.004;2023-04-03T06:01:36;4.90;;;4.00;;
1577;SDS011;57623;53.608;10.004;2023-04-03T06:04:04;5.90;;;4.93;;
1577;SDS011;57623;53.608;10.004;2023-04-03T06:06:47;4.47;;;4.07;;
1577;SDS011;57623;53.608;10.004;2023-04-03T06:09:17;6.23;;;3.97;;
1577;SDS011;57623;53.608;10.004;2023-04-03T06:11:47;6.27;;;4.37;;
1577;SDS011;57623;53.608;10.004;2023-04-03T06:14:15;4.30;;;3.87;;
1577;SDS011;57623;53.608;10.004;2023-04-03T06:16:43;4.83;;;3.30;;
1577;SDS011;57623;53.608;10.004;2023-04-03T06:19:11;7.63;;;4.03;;
1577;SDS011;57623;53.608;10.004;2023-04-03T06:21:39;4.67;;;3.20;;
1577;SDS011;57623;53.608;10.004;2023-04-03T06:24:10;5.80;;;3.87;;
1577;SDS011;57623;53.608;10.004;2023-04-03T06:26:41;4.20;;;2.93;;
1577;SDS011;57623;53.608;10.004;2023-04-03T06:29:09;5.10;;;4.23;;
1577;SDS011;57623;53.608;10.004;2023-04-03T06:31:37;4.80;;;3.47;;
1577;SDS011;57623;53.608;10.004;2023-04-03T06:34:06;3.87;;;3.30;;
1577;SDS011;57623;53.608;10.004;2023-04-03T06:36:35;5.67;;;3.30;;
1577;SDS011;57623;53.608;10.004;2023-04-03T06:39:03;4.90;;;3.90;;
1577;SDS011;57623;53.608;10.004;2023-04-03T06:41:32;6.83;;;4.20;;
1577;SDS011;57623;53.608;10.004;2023-04-03T06:44:02;3.50;;;3.10;;
1577;SDS011;57623;53.608;10.004;2023-04-03T06:46:30;5.20;;;3.70;;
1577;SDS011;57623;53.608;10.004;2023-04-03T06:48:58;7.03;;;3.67;;
1577;SDS011;57623;53.608;10.004;2023-04-03T06:51:27;4.50;;;3.60;;
1577;SDS011;57623;53.608;10.004;2023-04-03T06:53:56;4.70;;;3.00;;
1577;SDS011;57623;53.608;10.004;2023-04-03T06:56:26;3.10;;;2.70;;
1577;SDS011;57623;53.608;10.004;2023-04-03T06:58:56;3.93;;;3.10;;
1577;SDS011;57623;53.608;10.004;2023-04-03T07:01:25;5.57;;;3.50;;
1577;SDS011;57623;53.608;10.004;2023-04-03T07:03:54;5.50;;;2.87;;
1577;SDS011;57623;53.608;10.004;2023-04-03T07:06:23;3.87;;;2.90;;
1577;SDS011;57623;53.608;10.004;2023-04-03T07:08:53;3.20;;;2.90;;
1577;SDS011;57623;53.608;10.004;2023-04-03T07:11:21;3.50;;;2.27;;
1577;SDS011;57623;53.608;10.004;2023-04-03T07:13:50;3.20;;;2.80;;
1577;SDS011;57623;53.608;10.004;2023-04-03T07:16:19;2.87;;;2.60;;
1577;SDS011;57623;53.608;10.004;2023-04-03T07:18:48;5.77;;;3.70;;
1577;SDS011;57623;53.608;10.004;2023-04-03T07:21:16;5.13;;;2.27;;
1577;SDS011;57623;53.608;10.004;2023-04-03T07:23:44;2.40;;;2.07;;
1577;SDS011;57623;53.608;10.004;2023-04-03T07:26:17;2.53;;;1.90;;
1577;SDS011;57623;53.608;10.004;2023-04-03T07:28:46;3.60;;;2.13;;
1577;SDS011;57623;53.608;10.004;2023-04-03T07:31:16;2.57;;;1.77;;
1577;SDS011;57623;53.608;10.004;2023-04-03T07:33:46;3.93;;;2.60;;
1577;SDS011;57623;53.608;10.004;2023-04-03T07:36:15;1.70;;;1.60;;
1577;SDS011;57623;53.608;10.004;2023-04-03T07:38:45;4.47;;;1.60;;
1577;SDS011;57623;53.608;10.004;2023-04-03T07:41:14;4.17;;;1.80;;
1577;SDS011;57623;53.608;10.004;2023-04-03T07:43:44;3.33;;;1.77;;
1577;SDS011;57623;53.608;10.004;2023-04-03T07:46:12;2.57;;;1.70;;
1577;SDS011;57623;53.608;10.004;2023-04-03T07:48:42;2.83;;;1.63;;
1577;SDS011;57623;53.608;10.004;2023-04-03T07:51:10;4.80;;;1.80;;
1577;SDS011;57623;53.608;10.004;2023-04-03T07:53:38;2.50;;;1.90;;
1577;SDS011;57623;53.608;10.004;2023-04-03T07:56:06;3.50;;;1.67;;
1577;SDS011;57623;53.608;10.004;2023-04-03T07:58:34;4.10;;;2.07;;
1577;SDS011;57623;53.608;10.004;2023-04-03T08:01:03;2.03;;;1.40;;
1577;SDS011;57623;53.608;10.004;2023-04-03T08:03:32;3.27;;;1.67;;
1577;SDS011;57623;53.608;10.004;2023-04-03T08:06:05;1.40;;;1.30;;
1577;SDS011;57623;53.608;10.004;2023-04-03T08:08:41;2.60;;;1.50;;
1577;SDS011;57623;53.608;10.004;2023-04-03T08:11:09;2.47;;;1.80;;
1577;SDS011;57623;53.608;10.004;2023-04-03T08:13:38;4.00;;;2.20;;
1577;SDS011;57623;53.608;10.004;2023-04-03T08:16:08;3.20;;;1.77;;
1577;SDS011;57623;53.608;10.004;2023-04-03T08:18:38;3.37;;;1.90;;
1577;SDS011;57623;53.608;10.004;2023-04-03T08:21:08;2.20;;;1.40;;
1577;SDS011;57623;53.608;10.004;2023-04-03T08:23:37;2.70;;;1.30;;
1577;SDS011;57623;53.608;10.004;2023-04-03T08:26:07;4.97;;;3.00;;
1577;SDS011;57623;53.608;10.004;2023-04-03T08:28:36;1.77;;;1.60;;
1577;SDS011;57623;53.608;10.004;2023-04-03T08:31:05;2.80;;;1.80;;
1577;SDS011;57623;53.608;10.004;2023-04-03T08:33:34;2.63;;;1.83;;
1577;SDS011;57623;53.608;10.004;2023-04-03T08:36:03;3.47;;;1.93;;
1577;SDS011;57623;53.608;10.004;2023-04-03T08:38:34;3.70;;;1.80;;
1577;SDS011;57623;53.608;10.004;2023-04-03T08:41:04;4.93;;;2.40;;
1577;SDS011;57623;53.608;10.004;2023-04-03T08:43:41;2.90;;;1.70;;
1577;SDS011;57623;53.608;10.004;2023-04-03T08:46:34;2.17;;;1.43;;
1577;SDS011;57623;53.608;10.004;2023-04-03T08:49:10;2.40;;;1.63;;
1577;SDS011;57623;53.608;10.004;2023-04-03T08:51:46;2.00;;;1.43;;
1577;SDS011;57623;53.608;10.004;2023-04-03T08:54:21;6.13;;;1.70;;
1577;SDS011;57623;53.608;10.004;2023-04-03T08:56:59;2.97;;;1.50;;
1577;SDS011;57623;53.608;10.004;2023-04-03T08:59:32;2.70;;;1.67;;
1577;SDS011;57623;53.608;10.004;2023-04-03T09:02:02;2.73;;;1.33;;
1577;SDS011;57623;53.608;10.004;2023-04-03T09:04:39;2.67;;;1.30;;
1577;SDS011;57623;53.608;10.004;2023-04-03T09:07:10;2.80;;;1.23;;
1577;SDS011;57623;53.608;10.004;2023-04-03T09:09:45;3.57;;;1.30;;
1577;SDS011;57623;53.608;10.004;2023-04-03T09:12:17;1.50;;;1.20;;
1577;SDS011;57623;53.608;10.004;2023-04-03T09:14:52;2.90;;;2.00;;
1577;SDS011;57623;53.608;10.004;2023-04-03T09:17:31;3.60;;;1.50;;
1577;SDS011;57623;53.608;10.004;2023-04-03T09:20:10;1.97;;;1.30;;
1577;SDS011;57623;53.608;10.004;2023-04-03T09:22:47;3.27;;;1.33;;
1577;SDS011;57623;53.608;10.004;2023-04-03T09:25:20;2.40;;;1.23;;
1577;SDS011;57623;53.608;10.004;2023-04-03T09:27:50;3.57;;;1.30;;
1577;SDS011;57623;53.608;10.004;2023-04-03T09:30:19;3.60;;;1.57;;
1577;SDS011;57623;53.608;10.004;2023-04-03T09:32:50;2.30;;;1.30;;
1577;SDS011;57623;53.608;10.004;2023-04-03T09:35:20;1.43;;;1.20;;
1577;SDS011;57623;53.608;10.004;2023-04-03T09:38:17;2.90;;;1.27;;
1577;SDS011;57623;53.608;10.004;2023-04-03T09:40:49;3.83;;;2.00;;
1577;SDS011;57623;53.608;10.004;2023-04-03T09:43:23;3.50;;;2.23;;
1577;SDS011;57623;53.608;10.004;2023-04-03T09:45:56;1.93;;;1.20;;
1577;SDS011;57623;53.608;10.004;2023-04-03T09:48:52;1.90;;;0.90;;
1577;SDS011;57623;53.608;10.004;2023-04-03T09:51:34;1.50;;;0.90;;
1577;SDS011;57623;53.608;10.004;2023-04-03T09:54:23;1.00;;;1.00;;
1577;SDS011;57623;53.608;10.004;2023-04-03T09:56:59;2.47;;;1.00;;
1577;SDS011;57623;53.608;10.004;2023-04-03T09:59:31;2.17;;;0.87;;
1577;SDS011;57623;53.608;10.004;2023-04-03T10:02:01;0.70;;;0.70;;
1577;SDS011;57623;53.608;10.004;2023-04-03T10:04:37;1.20;;;1.10;;
1577;SDS011;57623;53.608;10.004;2023-04-03T10:10:14;1.43;;;1.00;;
1577;SDS011;57623;53.608;10.004;2023-04-03T10:12:47;1.50;;;1.40;;
1577;SDS011;57623;53.608;10.004;2023-04-03T10:15:16;2.63;;;1.80;;
1577;SDS011;57623;53.608;10.004;2023-04-03T10:17:50;1.37;;;1.10;;
1577;SDS011;57623;53.608;10.004;2023-04-03T10:20:26;3.10;;;2.00;;
1577;SDS011;57623;53.608;10.004;2023-04-03T10:23:03;3.03;;;2.20;;
1577;SDS011;57623;53.608;10.004;2023-04-03T10:25:43;1.23;;;0.80;;
1577;SDS011;57623;53.608;10.004;2023-04-03T10:28:25;2.20;;;1.23;;
1577;SDS011;57623;53.608;10.004;2023-04-03T10:30:58;3.33;;;1.93;;
1577;SDS011;57623;53.608;10.004;2023-04-03T10:33:44;3.40;;;2.10;;
1577;SDS011;57623;53.608;10.004;2023-04-03T10:36:21;2.70;;;1.43;;
1577;SDS011;57623;53.608;10.004;2023-04-03T10:38:58;1.57;;;1.30;;
1577;SDS011;57623;53.608;10.004;2023-04-03T10:41:34;1.80;;;1.20;;
1577;SDS011;57623;53.608;10.004;2023-04-03T10:44:16;2.50;;;1.07;;
1577;SDS011;57623;53.608;10.004;2023-04-03T10:46:53;1.07;;;0.97;;
1577;SDS011;57623;53.608;10.004;2023-04-03T10:49:31;2.23;;;1.53;;
1577;SDS011;57623;53.608;10.004;2023-04-03T10:52:20;2.63;;;1.33;;
1577;SDS011;57623;53.608;10.004;2023-04-03T10:54:56;1.50;;;1.10;;
1577;SDS011;57623;53.608;10.004;2023-04-03T10:57:34;1.90;;;1.20;;
1577;SDS011;57623;53.608;10.004;2023-04-03T11:00:04;1.63;;;1.27;;
1577;SDS011;57623;53.608;10.004;2023-04-03T11:05:57;1.80;;;1.20;;
1577;SDS011;57623;53.608;10.004;2023-04-03T11:08:28;1.77;;;1.13;;
1577;SDS011;57623;53.608;10.004;2023-04-03T11:11:02;3.23;;;1.67;;
1577;SDS011;57623;53.608;10.004;2023-04-03T11:13:37;3.77;;;1.33;;
1577;SDS011;57623;53.608;10.004;2023-04-03T11:16:10;1.33;;;1.23;;
1577;SDS011;57623;53.608;10.004;2023-04-03T11:18:45;1.80;;;1.03;;
1577;SDS011;57623;53.608;10.004;2023-04-03T11:21:17;2.70;;;1.60;;
1577;SDS011;57623;53.608;10.004;2023-04-03T11:23:48;1.73;;;1.50;;
1577;SDS011;57623;53.608;10.004;2023-04-03T11:26:19;2.37;;;1.30;;
1577;SDS011;57623;53.608;10.004;2023-04-03T11:28:52;2.20;;;1.30;;
1577;SDS011;57623;53.608;10.004;2023-04-03T11:31:29;3.27;;;1.40;;
1577;SDS011;57623;53.608;10.004;2023-04-03T11:34:08;2.10;;;1.23;;
1577;SDS011;57623;53.608;10.004;2023-04-03T11:36:48;2.63;;;1.10;;
1577;SDS011;57623;53.608;10.004;2023-04-03T11:39:22;2.70;;;1.40;;
1577;SDS011;57623;53.608;10.004;2023-04-03T11:41:55;2.10;;;1.17;;
1577;SDS011;57623;53.608;10.004;2023-04-03T11:44:42;1.77;;;1.10;;
1577;SDS011;57623;53.608;10.004;2023-04-03T11:47:11;3.40;;;1.30;;
1577;SDS011;57623;53.608;10.004;2023-04-03T11:50:00;2.60;;;1.40;;
1577;SDS011;57623;53.608;10.004;2023-04-03T11:55:46;5.80;;;2.73;;
1577;SDS011;57623;53.608;10.004;2023-04-03T11:58:22;2.53;;;1.77;;
1577;SDS011;57623;53.608;10.004;2023-04-03T12:00:58;1.70;;;1.43;;
1577;SDS011;57623;53.608;10.004;2023-04-03T12:09:25;4.00;;;1.40;;
1577;SDS011;57623;53.608;10.004;2023-04-03T12:11:59;1.43;;;1.10;;
1577;SDS011;57623;53.608;10.004;2023-04-03T12:14:28;1.90;;;1.10;;
1577;SDS011;57623;53.608;10.004;2023-04-03T12:16:57;1.83;;;1.03;;
1577;SDS011;57623;53.608;10.004;2023-04-03T12:19:34;2.67;;;1.60;;
1577;SDS011;57623;53.608;10.004;2023-04-03T12:22:15;2.27;;;1.33;;
1577;SDS011;57623;53.608;10.004;2023-04-03T12:24:47;1.80;;;1.33;;
1577;SDS011;57623;53.608;10.004;2023-04-03T12:27:32;2.00;;;1.30;;
1577;SDS011;57623;53.608;10.004;2023-04-03T12:30:11;2.10;;;1.53;;
1577;SDS011;57623;53.608;10.004;2023-04-03T12:32:46;2.57;;;1.50;;
1577;SDS011;57623;53.608;10.004;2023-04-03T12:35:39;1.17;;;0.97;;
1577;SDS011;57623;53.608;10.004;2023-04-03T12:38:25;1.17;;;0.93;;
1577;SDS011;57623;53.608;10.004;2023-04-03T12:41:14;1.77;;;1.00;;
1577;SDS011;57623;53.608;10.004;2023-04-03T12:43:50;2.07;;;1.37;;
1577;SDS011;57623;53.608;10.004;2023-04-03T12:46:33;1.57;;;1.13;;
1577;SDS011;57623;53.608;10.004;2023-04-03T12:49:12;3.27;;;1.23;;
1577;SDS011;57623;53.608;10.004;2023-04-03T12:51:51;4.23;;;1.30;;
1577;SDS011;57623;53.608;10.004;2023-04-03T12:54:21;1.47;;;1.00;;
1577;SDS011;57623;53.608;10.004;2023-04-03T12:57:08;2.00;;;1.30;;
1577;SDS011;57623;53.608;10.004;2023-04-03T12:59:37;1.53;;;1.23;;
1577;SDS011;57623;53.608;10.004;2023-04-03T13:02:19;1.93;;;1.30;;
1577;SDS011;57623;53.608;10.004;2023-04-03T13:04:52;2.47;;;1.30;;
1577;SDS011;57623;53.608;10.004;2023-04-03T13:07:26;2.60;;;1.37;;
1577;SDS011;57623;53.608;10.004;2023-04-03T13:10:00;1.90;;;1.17;;
1577;SDS011;57623;53.608;10.004;2023-04-03T13:12:31;2.37;;;1.20;;
1577;SDS011;57623;53.608;10.004;2023-04-03T13:15:00;3.80;;;1.07;;
1577;SDS011;57623;53.608;10.004;2023-04-03T13:17:38;1.73;;;1.20;;
1577;SDS011;57623;53.608;10.004;2023-04-03T13:20:13;3.37;;;1.33;;
1577;SDS011;57623;53.608;10.004;2023-04-03T13:22:48;2.73;;;1.67;;
1577;SDS011;57623;53.608;10.004;2023-04-03T13:25:21;1.53;;;1.27;;
1577;SDS011;57623;53.608;10.004;2023-04-03T13:27:51;1.13;;;0.90;;
1577;SDS011;57623;53.608;10.004;2023-04-03T13:30:38;1.20;;;1.00;;
1577;SDS011;57623;53.608;10.004;2023-04-03T13:33:19;1.63;;;1.00;;
1577;SDS011;57623;53.608;10.004;2023-04-03T13:35:54;2.90;;;1.23;;
1577;SDS011;57623;53.608;10.004;2023-04-03T13:38:26;1.90;;;1.20;;
1577;SDS011;57623;53.608;10.004;2023-04-03T13:40:58;1.63;;;1.07;;
1577;SDS011;57623;53.608;10.004;2023-04-03T13:43:29;1.93;;;1.17;;
1577;SDS011;57623;53.608;10.004;2023-04-03T13:46:00;1.77;;;1.20;;
1577;SDS011;57623;53.608;10.004;2023-04-03T13:48:35;1.90;;;1.00;;
1577;SDS011;57623;53.608;10.004;2023-04-03T13:51:05;1.70;;;1.30;;
1577;SDS011;57623;53.608;10.004;2023-04-03T13:53:47;1.10;;;1.00;;
1577;SDS011;57623;53.608;10.004;2023-04-03T13:56:18;1.63;;;1.03;;
1577;SDS011;57623;53.608;10.004;2023-04-03T13:58:54;2.00;;;1.50;;
1577;SDS011;57623;53.608;10.004;2023-04-03T14:01:32;1.53;;;1.30;;
1577;SDS011;57623;53.608;10.004;2023-04-03T14:04:15;1.73;;;1.10;;
1577;SDS011;57623;53.608;10.004;2023-04-03T14:06:45;1.23;;;1.13;;
1577;SDS011;57623;53.608;10.004;2023-04-03T14:09:16;1.80;;;1.57;;
1577;SDS011;57623;53.608;10.004;2023-04-03T14:11:45;2.77;;;2.10;;
1577;SDS011;57623;53.608;10.004;2023-04-03T14:14:16;2.23;;;1.80;;
1577;SDS011;57623;53.608;10.004;2023-04-03T14:16:47;1.30;;;1.17;;
1577;SDS011;57623;53.608;10.004;2023-04-03T14:19:21;1.40;;;1.30;;
1577;SDS011;57623;53.608;10.004;2023-04-03T14:21:51;1.90;;;1.30;;
1577;SDS011;57623;53.608;10.004;2023-04-03T14:24:22;2.13;;;1.70;;
1577;SDS011;57623;53.608;10.004;2023-04-03T14:26:51;1.50;;;1.30;;
1577;SDS011;57623;53.608;10.004;2023-04-03T14:29:20;2.00;;;1.27;;
1577;SDS011;57623;53.608;10.004;2023-04-03T14:31:49;1.53;;;1.20;;
1577;SDS011;57623;53.608;10.004;2023-04-03T14:34:32;2.23;;;1.30;;
1577;SDS011;57623;53.608;10.004;2023-04-03T14:37:00;1.40;;;1.30;;
1577;SDS011;57623;53.608;10.004;2023-04-03T14:39:30;1.90;;;1.13;;
1577;SDS011;57623;53.608;10.004;2023-04-03T14:41:58;3.10;;;1.27;;
1577;SDS011;57623;53.608;10.004;2023-04-03T14:44:26;2.50;;;1.50;;
1577;SDS011;57623;53.608;10.004;2023-04-03T14:46:54;1.40;;;1.30;;
1577;SDS011;57623;53.608;10.004;2023-04-03T14:49:25;1.97;;;1.30;;
1577;SDS011;57623;53.608;10.004;2023-04-03T14:51:55;2.50;;;2.13;;
1577;SDS011;57623;53.608;10.004;2023-04-03T14:54:24;2.10;;;1.27;;
1577;SDS011;57623;53.608;10.004;2023-04-03T14:56:55;1.97;;;1.10;;
1577;SDS011;57623;53.608;10.004;2023-04-03T14:59:26;2.27;;;1.50;;
1577;SDS011;57623;53.608;10.004;2023-04-03T15:01:55;1.57;;;1.43;;
1577;SDS011;57623;53.608;10.004;2023-04-03T15:04:23;2.80;;;1.83;;
1577;SDS011;57623;53.608;10.004;2023-04-03T15:06:51;3.57;;;1.90;;
1577;SDS011;57623;53.608;10.004;2023-04-03T15:09:20;2.90;;;1.57;;
1577;SDS011;57623;53.608;10.004;2023-04-03T15:11:50;2.67;;;1.70;;
1577;SDS011;57623;53.608;10.004;2023-04-03T15:14:20;2.53;;;1.50;;
1577;SDS011;57623;53.608;10.004;2023-04-03T15:17:02;1.93;;;1.23;;
1577;SDS011;57623;53.608;10.004;2023-04-03T15:19:31;1.50;;;1.13;;
1577;SDS011;57623;53.608;10.004;2023-04-03T15:22:03;1.73;;;1.60;;
1577;SDS011;57623;53.608;10.004;2023-04-03T15:24:31;2.30;;;1.20;;
1577;SDS011;57623;53.608;10.004;2023-04-03T15:27:00;4.50;;;1.70;;
1577;SDS011;57623;53.608;10.004;2023-04-03T15:29:30;2.60;;;1.30;;
1577;SDS011;57623;53.608;10.004;2023-04-03T15:31:58;1.47;;;1.30;;
1577;SDS011;57623;53.608;10.004;2023-04-03T15:34:26;3.40;;;1.50;;
1577;SDS011;57623;53.608;10.004;2023-04-03T15:36:55;1.50;;;1.40;;
1577;SDS011;57623;53.608;10.004;2023-04-03T15:39:24;1.97;;;1.23;;